Time;durP1;ratioP1;P1;durP2;ratioP2;P2;SDS_P1;SDS_P2;PMS_P1;PMS_P2;Temp;Humidity;BMP_temperature;BMP_pressure;BME280_temperature;BME280_humidity;BME280_pressure;Samples;Min_cycle;Max_cycle;Signal;HPM_P1;HPM_P2
2023/04/11 00:00:54;;;;;;;1.52;1.42;;;;;;;14.61;48.81;97912.19;7390221;19;19914;-80
2023/04/11 00:03:21;;;;;;;2.30;1.60;;;;;;;14.64;47.88;97917.13;7393908;19;19934;-78
2023/04/11 00:05:49;;;;;;;2.58;2.35;;;;;;;14.68;48.86;97905.06;7393389;19;20397;-78
2023/04/11 00:08:15;;;;;;;2.17;1.13;;;;;;;14.74;48.38;97894.66;7390475;19;19918;-78
2023/04/11 00:10:42;;;;;;;2.97;1.80;;;;;;;14.76;48.80;97884.63;7387497;19;19943;-78
2023/04/11 00:13:11;;;;;;;2.75;1.30;;;;;;;14.78;48.40;97862.13;7391098;19;19918;-78
2023/04/11 00:15:38;;;;;;;2.20;1.55;;;;;;;14.77;49.09;97867.63;7388987;19;19922;-78
2023/04/11 00:18:05;;;;;;;1.55;1.27;;;;;;;14.72;49.35;97852.25;7391203;19;19911;-77
2023/04/11 00:20:32;;;;;;;2.30;1.30;;;;;;;14.73;48.23;97845.91;7386776;19;19919;-78
2023/04/11 00:22:59;;;;;;;1.63;1.33;;;;;;;14.68;49.38;97843.00;7389947;19;20558;-77
2023/04/11 00:25:28;;;;;;;1.48;1.00;;;;;;;14.71;49.36;97837.28;7388158;19;19943;-77
2023/04/11 00:27:56;;;;;;;3.30;2.17;;;;;;;14.71;49.65;97838.09;7391448;19;20157;-78
2023/04/11 00:30:22;;;;;;;1.52;1.30;;;;;;;14.68;50.70;97835.00;7392599;19;19971;-78
2023/04/11 00:32:50;;;;;;;1.88;1.20;;;;;;;14.61;50.97;97828.81;7391092;19;19930;-78
2023/04/11 00:35:17;;;;;;;1.20;1.02;;;;;;;14.60;50.98;97827.19;7388157;19;19939;-77
2023/04/11 00:37:45;;;;;;;3.72;1.52;;;;;;;14.60;50.85;97819.19;7390288;19;19944;-77
2023/04/11 00:40:14;;;;;;;1.95;1.30;;;;;;;14.64;50.72;97823.94;7390149;19;19933;-78
2023/04/11 00:42:41;;;;;;;2.20;1.30;;;;;;;14.60;51.51;97843.16;7387444;19;19926;-78
2023/04/11 00:45:08;;;;;;;1.80;0.82;;;;;;;14.58;51.16;97853.97;7385730;19;19949;-77
2023/04/11 00:47:35;;;;;;;1.65;1.42;;;;;;;14.54;51.48;97839.44;7384757;19;19919;-77
2023/04/11 00:50:02;;;;;;;2.13;1.20;;;;;;;14.52;50.19;97827.31;7386558;19;19922;-77
2023/04/11 00:52:29;;;;;;;1.85;1.05;;;;;;;14.48;51.54;97829.50;7386315;19;19921;-78
2023/04/11 00:54:56;;;;;;;2.65;1.30;;;;;;;14.46;52.82;97818.25;7391017;19;19922;-78
2023/04/11 00:57:24;;;;;;;2.58;1.65;;;;;;;14.40;56.41;97822.53;7388539;19;19942;-77
2023/04/11 00:59:51;;;;;;;1.95;1.33;;;;;;;14.24;57.71;97822.78;7383485;19;19918;-78
2023/04/11 01:02:23;;;;;;;1.88;1.77;;;;;;;14.00;57.44;97810.72;7389186;19;19926;-77
2023/04/11 01:04:52;;;;;;;3.92;1.55;;;;;;;13.87;56.04;97807.94;7388450;19;19944;-78
2023/04/11 01:07:19;;;;;;;2.60;1.23;;;;;;;13.76;56.12;97815.41;7387370;19;19923;-78
2023/04/11 01:09:46;;;;;;;2.38;1.40;;;;;;;13.83;57.91;97812.84;7389773;19;20376;-78
2023/04/11 01:12:13;;;;;;;2.25;1.63;;;;;;;13.80;55.79;97819.34;7386077;19;19947;-78
2023/04/11 01:14:40;;;;;;;2.60;2.00;;;;;;;13.82;55.31;97822.66;7388108;19;19914;-78
2023/04/11 01:17:11;;;;;;;3.22;1.30;;;;;;;13.90;54.40;97823.50;7393125;19;19930;-78
2023/04/11 01:19:38;;;;;;;3.22;2.25;;;;;;;13.79;54.25;97819.53;7391236;19;19926;-80
2023/04/11 01:22:05;;;;;;;1.95;1.30;;;;;;;14.04;53.11;97825.28;7390574;19;19978;-79
2023/04/11 01:24:31;;;;;;;1.77;1.55;;;;;;;14.21;52.71;97836.47;7395544;19;19947;-78
2023/04/11 01:26:58;;;;;;;2.80;1.50;;;;;;;14.22;54.84;97833.63;7397739;19;19922;-78
2023/04/11 01:29:25;;;;;;;3.95;1.55;;;;;;;14.22;58.45;97835.47;7393517;19;19918;-78
2023/04/11 01:31:53;;;;;;;1.67;1.45;;;;;;;13.98;56.29;97836.69;7392733;19;19922;-82
2023/04/11 01:34:26;;;;;;;1.75;1.27;;;;;;;14.00;57.63;97847.94;7393010;19;19923;-78
2023/04/11 01:36:54;;;;;;;2.35;1.60;;;;;;;13.69;57.59;97850.91;7394210;19;20801;-82
2023/04/11 01:39:20;;;;;;;2.67;1.30;;;;;;;13.80;60.48;97853.91;7390058;19;19914;-78
2023/04/11 01:41:48;;;;;;;3.65;1.83;;;;;;;13.60;65.33;97842.25;7386821;19;19919;-80
2023/04/11 01:44:14;;;;;;;2.45;1.80;;;;;;;13.23;66.15;97837.91;7392477;19;19919;-83
2023/04/11 01:46:42;;;;;;;2.17;1.30;;;;;;;12.80;68.19;97843.06;7393087;19;19918;-80
2023/04/11 01:49:09;;;;;;;4.15;3.80;;;;;;;12.60;68.26;97843.56;7394491;19;20253;-82
2023/04/11 01:51:36;;;;;;;2.95;1.85;;;;;;;12.46;69.35;97849.69;7394534;19;19923;-79
2023/04/11 01:54:03;;;;;;;2.40;1.45;;;;;;;12.37;70.09;97856.06;7394283;19;20352;-80
2023/04/11 01:56:30;;;;;;;1.88;1.70;;;;;;;12.53;69.33;97855.91;7391258;19;19910;-81
2023/04/11 01:58:57;;;;;;;3.00;1.67;;;;;;;12.35;68.85;97868.69;7392408;19;19929;-82
2023/04/11 02:01:25;;;;;;;1.80;1.50;;;;;;;12.51;68.70;97877.34;7393231;19;19911;-83
2023/04/11 02:03:52;;;;;;;3.83;1.70;;;;;;;12.57;69.41;97875.78;7398754;19;19914;-83
2023/04/11 02:06:19;;;;;;;3.45;1.90;;;;;;;12.79;69.30;97894.47;7396425;19;19921;-81
2023/04/11 02:08:46;;;;;;;3.35;2.90;;;;;;;12.68;70.71;97893.91;7395605;19;19929;-83
2023/04/11 02:11:14;;;;;;;3.63;1.83;;;;;;;12.60;71.67;97917.88;7395662;19;19943;-82
2023/04/11 02:13:43;;;;;;;3.50;2.70;;;;;;;12.38;73.50;97914.28;7391595;19;19918;-83
2023/04/11 02:16:13;;;;;;;3.90;1.90;;;;;;;12.24;74.62;97915.03;7390876;19;19918;-79
2023/04/11 02:18:42;;;;;;;5.28;3.28;;;;;;;12.10;76.01;97921.94;7392293;19;19918;-80
2023/04/11 02:21:10;;;;;;;2.63;2.05;;;;;;;12.04;76.86;97927.94;7387673;19;19923;-82
2023/04/11 02:23:37;;;;;;;3.78;3.35;;;;;;;12.03;77.01;97929.78;7389006;19;20334;-79
2023/04/11 02:26:04;;;;;;;2.88;2.15;;;;;;;11.97;77.32;97927.00;7389503;19;21035;-80
2023/04/11 02:28:31;;;;;;;3.25;1.75;;;;;;;11.72;78.48;97945.66;7389203;19;19947;-81
2023/04/11 02:30:58;;;;;;;2.25;1.80;;;;;;;11.87;78.44;97943.09;7389660;19;19915;-81
2023/04/11 02:33:25;;;;;;;3.00;1.92;;;;;;;11.80;78.91;97940.31;7391775;19;19951;-81
2023/04/11 02:35:51;;;;;;;4.03;2.47;;;;;;;11.75;79.64;97949.78;7390454;19;19914;-81
2023/04/11 02:38:19;;;;;;;3.95;2.17;;;;;;;11.56;80.51;97957.16;7396767;19;19915;-80
2023/04/11 02:40:46;;;;;;;2.08;1.55;;;;;;;11.62;80.77;97937.09;7396049;19;19922;-83
2023/04/11 02:43:14;;;;;;;2.05;1.80;;;;;;;11.70;80.18;97920.34;7392705;19;19922;-82
2023/04/11 02:45:41;;;;;;;5.20;1.63;;;;;;;11.82;80.29;97914.47;7386303;19;19926;-82
2023/04/11 02:48:09;;;;;;;10.10;2.38;;;;;;;11.71;80.43;97909.53;7389676;19;19922;-82
2023/04/11 02:50:41;;;;;;;1.95;1.52;;;;;;;11.73;80.32;97918.16;7386487;19;19923;-82
2023/04/11 02:53:08;;;;;;;2.17;1.98;;;;;;;11.70;80.36;97917.69;7387901;19;19925;-83
2023/04/11 02:55:40;;;;;;;2.97;1.77;;;;;;;11.52;80.99;97913.44;7387756;19;19922;-84
2023/04/11 02:58:07;;;;;;;2.60;1.33;;;;;;;11.69;80.61;97922.16;7389363;19;19922;-82
2023/04/11 03:00:36;;;;;;;1.92;1.67;;;;;;;11.60;80.79;97916.06;7386741;19;20332;-83
2023/04/11 03:03:06;;;;;;;3.22;2.05;;;;;;;11.57;80.94;97924.34;7389938;19;20296;-83
2023/04/11 03:05:39;;;;;;;1.88;1.65;;;;;;;11.55;81.21;97929.00;7389061;19;19926;-83
2023/04/11 03:08:07;;;;;;;2.90;1.50;;;;;;;11.51;81.21;97925.06;7391036;19;19918;-82
2023/04/11 03:10:37;;;;;;;2.17;1.92;;;;;;;11.55;80.95;97928.19;7397371;19;19970;-82
2023/04/11 03:13:07;;;;;;;2.28;1.55;;;;;;;11.58;80.67;97933.94;7405881;19;19922;-83
2023/04/11 03:15:34;;;;;;;1.70;1.30;;;;;;;11.54;80.79;97940.59;7388973;19;19926;-81
2023/04/11 03:18:05;;;;;;;1.42;1.08;;;;;;;11.39;80.84;97943.13;7391314;19;19914;-82
2023/04/11 03:20:35;;;;;;;1.95;1.27;;;;;;;11.43;80.74;97938.34;7379223;19;19918;-82
2023/04/11 03:23:01;;;;;;;2.30;1.80;;;;;;;11.51;80.76;97940.97;7388460;19;20376;-81
2023/04/11 03:25:28;;;;;;;2.72;1.60;;;;;;;11.45;80.72;97938.16;7386907;19;19977;-82
2023/04/11 03:27:56;;;;;;;1.40;1.02;;;;;;;11.48;80.80;97940.44;7387614;19;19918;-82
2023/04/11 03:30:23;;;;;;;1.70;1.10;;;;;;;11.43;80.49;97939.16;7384230;19;19939;-81
2023/04/11 03:32:51;;;;;;;1.90;1.25;;;;;;;11.28;80.84;97942.69;7383340;19;19928;-81
2023/04/11 03:35:21;;;;;;;3.05;1.55;;;;;;;11.29;81.10;97950.44;7388552;19;19910;-81
2023/04/11 03:37:49;;;;;;;2.20;1.42;;;;;;;11.31;80.92;97943.16;7386745;19;19918;-80
2023/04/11 03:40:17;;;;;;;1.65;1.50;;;;;;;11.30;81.22;97919.53;7389765;19;19944;-80
2023/04/11 03:42:50;;;;;;;1.42;1.33;;;;;;;11.32;80.99;97920.16;7385179;19;20404;-80
2023/04/11 03:45:21;;;;;;;2.17;1.05;;;;;;;11.23;80.75;97927.31;7392219;19;19918;-80
2023/04/11 03:47:50;;;;;;;2.55;2.35;;;;;;;11.06;80.47;97928.34;7390723;19;20424;-80
2023/04/11 03:50:21;;;;;;;3.72;1.42;;;;;;;11.05;80.42;97932.81;7390450;19;19922;-81
2023/04/11 03:52:54;;;;;;;2.92;1.80;;;;;;;11.16;80.25;97924.53;7387442;19;19927;-81
2023/04/11 03:55:21;;;;;;;2.55;1.02;;;;;;;10.98;79.85;97919.44;7386396;19;19938;-81
2023/04/11 03:57:48;;;;;;;2.60;1.25;;;;;;;11.03;79.40;97918.09;7384525;19;19914;-81
2023/04/11 04:00:17;;;;;;;3.75;1.10;;;;;;;10.87;79.73;97926.91;7383545;19;19919;-81
2023/04/11 04:02:57;;;;;;;1.27;0.93;;;;;;;10.84;79.68;97932.53;7384505;19;19937;-81
2023/04/11 04:05:24;;;;;;;2.58;1.40;;;;;;;10.59;80.00;97945.81;7382787;19;19918;-80
2023/04/11 04:07:51;;;;;;;3.05;1.45;;;;;;;10.46;80.55;97951.59;7383377;19;19949;-81
2023/04/11 04:10:30;;;;;;;2.72;1.85;;;;;;;10.40;80.66;97949.63;7384964;19;19929;-81
2023/04/11 04:12:57;;;;;;;4.13;2.33;;;;;;;10.47;80.55;97947.94;7386779;19;20250;-81
2023/04/11 04:15:32;;;;;;;3.80;1.88;;;;;;;10.31;80.75;97955.88;7386983;19;19915;-83
2023/04/11 04:18:00;;;;;;;3.05;1.55;;;;;;;10.42;80.73;97949.44;7384780;19;19926;-81
2023/04/11 04:20:46;;;;;;;2.17;1.38;;;;;;;10.40;80.64;97949.63;7379761;19;19921;-81
2023/04/11 04:23:16;;;;;;;3.38;2.97;;;;;;;10.45;80.23;97954.38;7388607;19;20266;-82
2023/04/11 04:25:52;;;;;;;5.93;1.60;;;;;;;10.50;80.33;97960.00;7384342;19;19915;-80
2023/04/11 04:28:24;;;;;;;2.25;2.15;;;;;;;10.53;80.18;97965.81;7382443;19;20649;-81
2023/04/11 04:30:56;;;;;;;2.03;1.85;;;;;;;10.40;80.78;97957.56;7384805;19;20888;-82
2023/04/11 04:33:26;;;;;;;3.03;1.15;;;;;;;9.89;82.75;97968.16;7386510;19;19943;-83
2023/04/11 04:35:58;;;;;;;2.65;1.02;;;;;;;10.33;81.82;97986.44;7381489;19;19953;-82
2023/04/11 04:38:29;;;;;;;2.65;1.35;;;;;;;10.47;81.11;97984.16;7385475;19;19918;-80
2023/04/11 04:40:58;;;;;;;2.30;1.58;;;;;;;10.30;81.33;97993.91;7384246;19;19922;-81
2023/04/11 04:43:31;;;;;;;2.40;1.50;;;;;;;10.27;81.30;97989.75;7384270;19;19955;-81
2023/04/11 04:46:35;;;;;;;4.05;2.58;;;;;;;10.25;81.47;97998.81;7388433;19;20476;-81
2023/04/11 04:49:04;;;;;;;4.25;1.58;;;;;;;10.42;81.08;98004.97;7388820;19;19933;-84
2023/04/11 04:51:36;;;;;;;2.63;1.33;;;;;;;10.44;81.15;98009.09;7389115;19;19981;-81
2023/04/11 04:54:03;;;;;;;2.55;2.30;;;;;;;10.40;81.11;98013.09;7393271;19;19929;-81
2023/04/11 04:56:33;;;;;;;3.70;1.80;;;;;;;10.42;81.10;98016.38;7395591;19;19921;-82
2023/04/11 04:59:00;;;;;;;5.57;1.67;;;;;;;10.13;81.53;98014.13;7392874;19;19918;-83
2023/04/11 05:01:31;;;;;;;3.40;1.10;;;;;;;10.13;81.33;98042.38;7390410;19;19929;-82
2023/04/11 05:04:00;;;;;;;1.73;1.05;;;;;;;10.24;81.08;98050.00;7391492;19;19918;-83
2023/04/11 05:06:42;;;;;;;2.72;1.52;;;;;;;10.08;80.97;98048.16;7394000;19;20290;-82
2023/04/11 05:09:09;;;;;;;1.20;0.93;;;;;;;10.05;80.77;98045.84;7394424;19;19925;-84
2023/04/11 05:11:35;;;;;;;2.38;1.77;;;;;;;9.91;81.11;98063.13;7387081;19;19941;-80
2023/04/11 05:14:02;;;;;;;1.70;1.05;;;;;;;9.88;81.25;98069.56;7396854;19;19937;-81
2023/04/11 05:16:29;;;;;;;1.38;1.02;;;;;;;9.79;80.59;98062.56;7391906;19;19922;-79
2023/04/11 05:18:56;;;;;;;1.90;1.23;;;;;;;9.92;80.48;98074.53;7391841;19;19986;-82
2023/04/11 05:21:23;;;;;;;1.55;1.45;;;;;;;9.65;80.07;98079.84;7387965;19;19986;-82
2023/04/11 05:23:51;;;;;;;1.48;1.30;;;;;;;9.75;79.91;98076.28;7389196;19;20665;-81
2023/04/11 05:26:21;;;;;;;1.10;0.93;;;;;;;9.42;79.86;98082.19;7393412;19;19926;-81
2023/04/11 05:28:48;;;;;;;2.15;1.98;;;;;;;9.53;79.55;98073.19;7389485;19;20279;-80
2023/04/11 05:31:18;;;;;;;1.50;1.38;;;;;;;9.67;79.24;98085.81;7392247;19;19910;-81
2023/04/11 05:33:45;;;;;;;0.95;0.80;;;;;;;9.45;78.88;98075.75;7393172;19;19953;-81
2023/04/11 05:36:13;;;;;;;1.52;1.35;;;;;;;9.17;79.18;98073.28;7389238;19;19918;-80
2023/04/11 05:38:40;;;;;;;1.45;0.70;;;;;;;9.33;79.07;98084.94;7391568;19;19922;-84
2023/04/11 05:41:07;;;;;;;1.35;1.15;;;;;;;9.52;78.61;98078.63;7391667;19;19947;-80
2023/04/11 05:43:35;;;;;;;1.33;1.23;;;;;;;9.50;78.97;98078.78;7388784;19;19922;-81
2023/04/11 05:46:02;;;;;;;1.70;0.88;;;;;;;9.49;78.84;98081.59;7391824;19;19982;-82
2023/04/11 05:48:29;;;;;;;2.08;1.88;;;;;;;9.42;78.62;98082.19;7392168;19;20195;-80
2023/04/11 05:50:57;;;;;;;3.63;1.25;;;;;;;9.44;78.48;98087.31;7385870;19;19933;-81
2023/04/11 05:53:23;;;;;;;2.33;0.88;;;;;;;9.41;78.55;98067.34;7390033;19;19919;-83
2023/04/11 05:55:50;;;;;;;2.15;0.70;;;;;;;9.39;77.99;98081.69;7389539;19;19933;-81
2023/04/11 05:58:17;;;;;;;1.90;1.58;;;;;;;9.33;77.87;98084.94;7392602;19;19922;-79
2023/04/11 06:00:44;;;;;;;0.88;0.88;;;;;;;9.47;77.98;98084.38;7385590;19;19922;-82
2023/04/11 06:03:11;;;;;;;1.08;0.95;;;;;;;9.55;77.57;98094.16;7392743;19;19925;-80
2023/04/11 06:05:39;;;;;;;2.40;2.28;;;;;;;9.65;77.80;98094.88;7391976;19;19915;-81
2023/04/11 06:08:06;;;;;;;1.88;0.95;;;;;;;9.71;77.85;98096.88;7395068;19;19915;-81
2023/04/11 06:10:34;;;;;;;1.98;1.15;;;;;;;9.55;77.48;98089.69;7389501;19;19939;-81
2023/04/11 06:13:01;;;;;;;2.75;1.85;;;;;;;9.66;77.56;98102.66;7390583;19;19914;-82
2023/04/11 06:15:28;;;;;;;2.15;0.88;;;;;;;9.78;77.76;98112.94;7389981;19;19919;-81
2023/04/11 06:17:55;;;;;;;1.27;1.17;;;;;;;9.75;77.89;98097.41;7390572;19;19922;-82
2023/04/11 06:20:22;;;;;;;2.53;1.30;;;;;;;9.67;77.96;98100.84;7388847;19;19926;-81
2023/04/11 06:22:52;;;;;;;1.02;0.88;;;;;;;9.57;77.40;98100.94;7383234;19;19929;-81
2023/04/11 06:25:20;;;;;;;2.70;1.73;;;;;;;9.58;77.12;98107.03;7387262;19;19918;-81
2023/04/11 06:27:47;;;;;;;1.83;1.45;;;;;;;9.56;77.20;98112.50;7391505;19;19943;-81
2023/04/11 06:30:14;;;;;;;1.90;1.25;;;;;;;9.66;77.37;98109.72;7395008;19;20181;-81
2023/04/11 06:32:41;;;;;;;2.15;0.85;;;;;;;9.75;77.27;98121.19;7388405;19;19914;-83
2023/04/11 06:35:08;;;;;;;3.10;1.00;;;;;;;9.79;77.34;98119.88;7394889;19;19919;-83
2023/04/11 06:37:35;;;;;;;2.17;1.52;;;;;;;9.76;77.24;98115.72;7394566;19;19919;-81
2023/04/11 06:40:04;;;;;;;2.17;0.90;;;;;;;9.74;76.96;98127.44;7383453;19;20006;-81
2023/04/11 06:42:31;;;;;;;2.28;1.13;;;;;;;9.73;76.91;98128.44;7388686;19;19914;-81
2023/04/11 06:45:01;;;;;;;2.20;1.10;;;;;;;9.82;76.68;98135.41;7389898;19;19943;-84
2023/04/11 06:47:27;;;;;;;2.67;1.10;;;;;;;9.71;76.64;98143.59;7390888;19;19918;-81
2023/04/11 06:49:55;;;;;;;1.10;0.93;;;;;;;9.80;76.43;98155.91;7390061;19;19935;-81
2023/04/11 06:52:21;;;;;;;1.55;0.93;;;;;;;9.81;76.27;98158.38;7388274;19;20341;-83
2023/04/11 06:54:48;;;;;;;2.22;0.65;;;;;;;9.92;76.39;98159.91;7390686;19;19935;-81
2023/04/11 06:57:15;;;;;;;3.83;1.63;;;;;;;9.79;76.62;98159.50;7394092;19;19915;-81
2023/04/11 06:59:42;;;;;;;2.67;2.47;;;;;;;9.92;76.26;98151.16;7388625;19;19923;-82
2023/04/11 07:02:08;;;;;;;2.13;0.98;;;;;;;9.89;76.03;98171.63;7389163;19;19919;-82
2023/04/11 07:04:35;;;;;;;3.45;1.33;;;;;;;9.89;75.72;98165.50;7392623;19;19939;-81
2023/04/11 07:07:03;;;;;;;3.88;1.23;;;;;;;9.94;75.90;98163.22;7388421;19;19955;-81
2023/04/11 07:09:32;;;;;;;3.85;2.03;;;;;;;9.93;75.87;98172.16;7391561;19;19944;-82
2023/04/11 07:12:00;;;;;;;3.20;1.23;;;;;;;9.86;76.15;98179.88;7384717;19;19927;-81
2023/04/11 07:14:26;;;;;;;4.47;1.25;;;;;;;9.83;75.76;98179.34;7388244;19;19918;-81
2023/04/11 07:16:53;;;;;;;4.25;2.15;;;;;;;9.80;75.84;98179.66;7386024;19;20254;-80
2023/04/11 07:19:20;;;;;;;2.05;1.20;;;;;;;9.82;76.33;98190.88;7391222;19;19919;-82
2023/04/11 07:21:47;;;;;;;2.83;1.02;;;;;;;10.05;75.92;98197.31;7387120;19;19919;-84
2023/04/11 07:24:17;;;;;;;2.30;1.48;;;;;;;10.07;75.88;98200.63;7388892;19;19915;-81
2023/04/11 07:26:45;;;;;;;2.55;1.35;;;;;;;10.01;75.84;98198.63;7382493;19;19944;-82
2023/04/11 07:29:12;;;;;;;4.75;1.17;;;;;;;9.91;75.38;98203.19;7387410;19;19922;-81
2023/04/11 07:31:40;;;;;;;1.90;0.70;;;;;;;9.90;75.46;98198.91;7386964;19;19937;-80
2023/04/11 07:34:07;;;;;;;2.33;0.90;;;;;;;9.73;75.16;98205.88;7388190;19;19914;-80
2023/04/11 07:36:35;;;;;;;3.05;1.17;;;;;;;9.55;75.35;98203.25;7389513;19;19922;-83
2023/04/11 07:39:03;;;;;;;4.22;2.08;;;;;;;9.73;75.52;98213.78;7384752;19;20440;-82
2023/04/11 07:41:31;;;;;;;3.15;2.85;;;;;;;10.00;75.06;98209.34;7388058;19;20015;-80
2023/04/11 07:43:58;;;;;;;3.28;2.60;;;;;;;10.25;74.73;98202.38;7387445;19;19939;-79
2023/04/11 07:46:25;;;;;;;2.47;1.52;;;;;;;10.41;74.65;98206.97;7388583;19;19929;-81
2023/04/11 07:48:53;;;;;;;5.20;1.52;;;;;;;10.45;73.13;98210.91;7389236;19;20356;-81
2023/04/11 07:51:19;;;;;;;2.60;1.13;;;;;;;10.20;73.19;98196.75;7388278;19;20548;-81
2023/04/11 07:53:46;;;;;;;2.20;1.45;;;;;;;10.40;72.91;98203.50;7386773;19;19914;-81
2023/04/11 07:56:14;;;;;;;3.15;1.20;;;;;;;10.36;72.35;98203.97;7389629;19;19970;-81
2023/04/11 07:58:40;;;;;;;7.22;3.13;;;;;;;10.53;72.64;98195.94;7386934;19;20382;-81
2023/04/11 08:01:22;;;;;;;2.90;1.80;;;;;;;10.52;72.39;98190.78;7388624;19;19986;-82
2023/04/11 08:03:51;;;;;;;11.35;2.35;;;;;;;10.34;71.66;98188.22;7387010;19;19915;-82
2023/04/11 08:06:18;;;;;;;3.55;1.02;;;;;;;10.80;72.69;98193.22;7388049;19;19939;-81
2023/04/11 08:08:46;;;;;;;4.50;1.38;;;;;;;10.75;70.88;98193.69;7386900;19;20007;-84
2023/04/11 08:11:13;;;;;;;3.50;0.90;;;;;;;10.83;70.62;98191.06;7387059;19;19926;-81
2023/04/11 08:13:41;;;;;;;4.20;1.25;;;;;;;10.83;69.92;98188.41;7384014;19;19923;-82
2023/04/11 08:16:10;;;;;;;3.50;1.00;;;;;;;10.68;69.30;98190.00;7386353;19;19932;-78
2023/04/11 08:18:40;;;;;;;3.45;1.75;;;;;;;10.74;69.34;98190.22;7384557;19;19924;-81
2023/04/11 08:21:11;;;;;;;2.08;1.10;;;;;;;10.92;68.87;98199.84;7381494;19;19918;-81
2023/04/11 08:23:41;;;;;;;4.13;1.60;;;;;;;10.57;68.10;98185.03;7391688;19;19951;-79
2023/04/11 08:26:09;;;;;;;3.90;2.97;;;;;;;10.59;68.74;98183.06;7393756;19;20280;-80
2023/04/11 08:28:36;;;;;;;3.63;1.33;;;;;;;10.97;68.30;98193.06;7393455;19;19948;-82
2023/04/11 08:31:04;;;;;;;5.30;0.82;;;;;;;11.03;67.88;98204.81;7388433;19;19930;-82
2023/04/11 08:33:30;;;;;;;4.43;1.33;;;;;;;10.91;68.11;98217.53;7393578;19;19918;-79
2023/04/11 08:35:57;;;;;;;4.50;1.40;;;;;;;10.99;67.69;98208.78;7386437;19;19922;-82
2023/04/11 08:38:24;;;;;;;3.45;2.92;;;;;;;11.02;67.77;98202.34;7391698;19;20251;-83
2023/04/11 08:40:51;;;;;;;3.42;1.02;;;;;;;11.30;67.86;98211.66;7389471;19;19922;-81
2023/04/11 08:43:18;;;;;;;4.60;1.35;;;;;;;11.19;65.54;98219.94;7394078;19;19918;-80
2023/04/11 08:45:45;;;;;;;2.95;1.02;;;;;;;11.01;65.90;98220.06;7388190;19;19931;-81
2023/04/11 08:48:12;;;;;;;1.92;1.45;;;;;;;11.18;64.72;98219.06;7394726;19;19915;-80
2023/04/11 08:50:40;;;;;;;3.15;1.42;;;;;;;11.13;63.95;98221.38;7390045;19;19922;-82
2023/04/11 08:53:07;;;;;;;5.68;1.10;;;;;;;11.06;64.02;98211.59;7387888;19;19943;-81
2023/04/11 08:55:35;;;;;;;3.78;2.05;;;;;;;10.98;64.60;98210.63;7391843;19;19935;-79
2023/04/11 08:58:02;;;;;;;2.97;1.38;;;;;;;10.85;64.62;98212.91;7395098;19;19939;-79
2023/04/11 09:00:31;;;;;;;1.10;0.70;;;;;;;10.76;63.71;98221.78;7392390;19;19921;-79
2023/04/11 09:03:06;;;;;;;1.92;1.23;;;;;;;10.77;63.04;98215.53;7391909;19;19918;-82
2023/04/11 09:05:35;;;;;;;2.78;1.10;;;;;;;11.02;63.25;98228.81;7389946;19;19922;-81
2023/04/11 09:08:05;;;;;;;1.88;1.13;;;;;;;11.23;62.41;98234.47;7390410;19;19918;-81
2023/04/11 09:10:32;;;;;;;2.38;1.48;;;;;;;11.13;61.90;98226.69;7391431;19;19939;-81
2023/04/11 09:12:59;;;;;;;3.13;2.50;;;;;;;11.11;61.97;98219.88;7391324;19;20235;-82
2023/04/11 09:15:27;;;;;;;3.10;1.20;;;;;;;11.04;61.19;98224.19;7394745;19;20164;-80
2023/04/11 09:17:55;;;;;;;3.97;1.30;;;;;;;11.37;62.31;98231.19;7393709;19;20332;-82
2023/04/11 09:20:28;;;;;;;2.15;0.82;;;;;;;11.42;61.91;98215.63;7392382;19;19936;-82
2023/04/11 09:22:57;;;;;;;3.83;1.20;;;;;;;11.30;61.94;98214.31;7393751;19;19929;-79
2023/04/11 09:25:24;;;;;;;1.63;1.08;;;;;;;11.77;63.63;98210.13;7392039;19;19919;-82
2023/04/11 09:28:08;;;;;;;3.85;1.17;;;;;;;11.84;61.01;98209.31;7394577;19;19978;-82
2023/04/11 09:30:35;;;;;;;2.90;0.85;;;;;;;12.16;60.06;98204.97;7392200;19;19986;-80
2023/04/11 09:33:21;;;;;;;2.40;1.35;;;;;;;12.13;58.51;98213.25;7390780;19;20443;-81
2023/04/11 09:35:51;;;;;;;2.92;1.15;;;;;;;12.51;59.43;98209.00;7388210;19;19926;-82
2023/04/11 09:38:28;;;;;;;1.90;1.15;;;;;;;12.02;59.06;98213.63;7392722;19;19921;-79
2023/04/11 09:40:55;;;;;;;9.10;1.48;;;;;;;12.04;58.96;98215.13;7389603;19;19944;-79
2023/04/11 09:43:23;;;;;;;2.03;1.92;;;;;;;12.33;59.25;98212.91;7392913;19;20581;-81
2023/04/11 09:46:07;;;;;;;3.50;1.38;;;;;;;12.48;59.71;98205.84;7392098;19;19938;-79
2023/04/11 09:48:36;;;;;;;3.50;1.33;;;;;;;12.60;57.77;98215.09;7394595;19;19932;-79
2023/04/11 09:51:23;;;;;;;2.85;1.52;;;;;;;12.55;58.56;98206.84;7383156;19;19918;-80
2023/04/11 09:54:02;;;;;;;4.82;1.05;;;;;;;12.82;56.36;98202.06;7386103;19;19930;-82
2023/04/11 09:56:32;;;;;;;3.35;0.85;;;;;;;13.12;57.06;98205.72;7393962;19;19918;-83
2023/04/11 09:59:01;;;;;;;1.60;1.02;;;;;;;13.37;56.87;98203.72;7387546;19;19922;-82
2023/04/11 10:01:36;;;;;;;2.13;1.08;;;;;;;13.34;56.65;98206.75;7389482;19;19918;-81
2023/04/11 10:04:03;;;;;;;2.38;1.20;;;;;;;13.17;53.71;98208.66;7403793;19;19922;-80
2023/04/11 10:06:39;;;;;;;2.72;1.02;;;;;;;13.31;52.86;98225.69;7410347;19;19915;-83
2023/04/11 10:09:08;;;;;;;2.03;0.80;;;;;;;13.27;53.24;98232.34;7394613;19;19925;-81
2023/04/11 10:11:35;;;;;;;3.83;0.80;;;;;;;12.72;54.39;98227.00;7387784;19;20017;-82
2023/04/11 10:14:02;;;;;;;2.80;1.20;;;;;;;12.72;53.50;98226.19;7389836;19;19950;-83
2023/04/11 10:16:32;;;;;;;5.38;2.08;;;;;;;12.70;56.59;98221.03;7393506;19;19910;-81
2023/04/11 10:18:59;;;;;;;3.17;1.27;;;;;;;12.83;53.10;98231.09;7385509;19;19923;-82
2023/04/11 10:21:32;;;;;;;2.22;2.05;;;;;;;12.96;52.85;98225.22;7389470;19;20472;-83
2023/04/11 10:24:08;;;;;;;3.35;1.60;;;;;;;12.94;51.53;98238.66;7391516;19;20278;-82
2023/04/11 10:26:56;;;;;;;4.95;1.23;;;;;;;12.90;52.18;98237.38;7390700;19;19919;-83
2023/04/11 10:29:33;;;;;;;4.63;1.15;;;;;;;12.68;50.84;98225.69;7394307;19;19919;-80
2023/04/11 10:32:16;;;;;;;1.48;0.98;;;;;;;12.56;50.11;98229.72;7385950;19;19919;-87
2023/04/11 10:34:48;;;;;;;;;;;;;;;12.55;51.91;98233.38;7395173;19;19918;-81
2023/04/11 10:37:29;;;;;;;2.38;0.80;;;;;;;12.30;51.14;98227.34;7395334;19;19919;-81
2023/04/11 10:40:00;;;;;;;6.47;2.13;;;;;;;12.51;53.18;98237.38;7383711;19;20266;-80
2023/04/11 10:42:31;;;;;;;;;;;;;;;12.18;53.52;98224.19;7389784;19;19915;-82
2023/04/11 10:45:26;;;;;;;2.03;1.08;;;;;;;12.61;52.07;98222.09;7392517;19;19951;-83
2023/04/11 10:47:56;;;;;;;3.65;1.30;;;;;;;12.91;54.00;98232.88;7386531;19;19922;-82
2023/04/11 10:50:25;;;;;;;1.35;1.00;;;;;;;12.87;53.24;98236.88;7390411;19;19922;-80
2023/04/11 10:52:53;;;;;;;2.17;0.90;;;;;;;13.24;53.93;98240.66;7391519;19;19932;-83
2023/04/11 10:55:21;;;;;;;2.80;0.73;;;;;;;13.21;52.89;98239.19;7391197;19;19914;-81
2023/04/11 10:58:21;;;;;;;3.90;1.70;;;;;;;13.20;53.79;98228.75;7390440;19;19931;-81
2023/04/11 11:00:50;;;;;;;1.13;0.63;;;;;;;13.24;52.62;98248.63;7388521;19;19928;-81
2023/04/11 11:03:20;;;;;;;2.53;1.17;;;;;;;13.13;51.95;98240.06;7398734;19;21181;-84
2023/04/11 11:06:08;;;;;;;3.30;0.98;;;;;;;13.51;52.12;98234.88;7391073;19;19914;-81
2023/04/11 11:08:40;;;;;;;4.53;1.13;;;;;;;13.49;51.43;98231.56;7399032;19;19922;-85
2023/04/11 11:11:09;;;;;;;2.28;0.93;;;;;;;13.71;50.63;98231.72;7392784;19;19922;-81
2023/04/11 11:13:48;;;;;;;2.53;0.82;;;;;;;14.33;49.62;98236.78;7395780;19;19926;-81
2023/04/11 11:16:17;;;;;;;2.60;1.52;;;;;;;14.21;48.93;98238.22;7393195;19;20528;-80
2023/04/11 11:18:46;;;;;;;4.93;1.38;;;;;;;14.41;49.77;98225.22;7396934;19;20607;-83
2023/04/11 11:21:15;;;;;;;2.17;0.88;;;;;;;14.77;47.55;98233.31;7390963;19;19922;-85
2023/04/11 11:23:59;;;;;;;5.07;2.20;;;;;;;15.20;43.91;98224.56;7395317;19;20246;-85
2023/04/11 11:26:40;;;;;;;1.48;0.65;;;;;;;15.06;46.24;98224.41;7397629;19;19914;-81
2023/04/11 11:29:08;;;;;;;2.10;0.98;;;;;;;15.41;45.65;98226.41;7392915;19;19947;-82
2023/04/11 11:31:44;;;;;;;2.67;1.13;;;;;;;15.36;44.91;98232.31;7392119;19;19925;-82
2023/04/11 11:34:11;;;;;;;;;;;;;;;15.19;44.07;98226.38;7392122;19;19914;-84
2023/04/11 11:36:49;;;;;;;3.50;1.52;;;;;;;15.55;43.77;98218.34;7387866;19;19964;-82
2023/04/11 11:39:17;;;;;;;2.60;0.98;;;;;;;15.83;43.10;98219.44;7385741;19;20375;-83
2023/04/11 11:41:45;;;;;;;1.30;0.70;;;;;;;16.29;42.58;98224.28;7385787;19;19918;-84
2023/04/11 11:44:26;;;;;;;2.47;1.10;;;;;;;16.10;40.58;98217.78;7388816;19;19925;-83
2023/04/11 11:47:04;;;;;;;3.58;1.15;;;;;;;15.44;43.24;98218.03;7386450;19;19951;-80